Time;durP1;ratioP1;P1;durP2;ratioP2;P2;SDS_P1;SDS_P2;PMS_P1;PMS_P2;Temp;Humidity;BMP_temperature;BMP_pressure;BME280_temperature;BME280_humidity;BME280_pressure;Samples;Min_cycle;Max_cycle;Signal;HPM_P1;HPM_P2
2023/03/24 00:00:39;;;;;;;;;;;;;;;;;;5054310;28;19969;-67
2023/03/24 00:03:04;;;;;;;;;;;;;;;;;;5054063;28;20320;-66
2023/03/24 00:05:30;;;;;;;;;;;;;;;;;;5054007;28;19947;-67
2023/03/24 00:07:58;;;;;;;;;;;;;;;;;;5054248;28;19974;-69
2023/03/24 00:10:24;;;;;;;;;;;;;;;;;;5053886;28;19952;-68
2023/03/24 00:12:50;;;;;;;;;;;;;;;;;;5053917;28;19939;-66
2023/03/24 00:15:17;;;;;;;;;;;;;;;;;;5054171;28;19936;-64
2023/03/24 00:17:44;;;;;;;;;;;;;;;;;;5053811;28;20392;-66
2023/03/24 00:20:13;;;;;;;;;;;;;;;;;;5053654;28;20377;-67
2023/03/24 00:22:41;;;;;;;;;;;;;;;;;;5053726;28;20423;-68
2023/03/24 00:25:07;;;;;;;;;;;;;;;;;;5053775;28;19965;-68
2023/03/24 00:27:35;;;;;;;;;;;;;;;;;;5053771;28;20041;-68
2023/03/24 00:30:02;;;;;;;;;;;;;;;;;;5053920;28;19968;-66
2023/03/24 00:32:29;;;;;;;;;;;;;;;;;;5053919;28;19952;-70
2023/03/24 00:34:55;;;;;;;;;;;;;;;;;;5053847;28;20001;-69
2023/03/24 00:37:20;;;;;;;;;;;;;;;;;;5053608;28;20027;-66
2023/03/24 00:39:46;;;;;;;;;;;;;;;;;;5053357;28;19986;-66
2023/03/24 00:42:12;;;;;;;;;;;;;;;;;;5054184;28;20347;-68
2023/03/24 00:44:38;;;;;;;;;;;;;;;;;;5053827;28;20285;-65
2023/03/24 00:47:04;;;;;;;;;;;;;;;;;;5053822;28;19948;-67
2023/03/24 00:49:43;;;;;;;;;;;;;;;;;;5053508;28;19939;-66
2023/03/24 00:52:09;;;;;;;;;;;;;;;;;;5052231;28;20023;-68
2023/03/24 00:54:35;;;;;;;;;;;;;;;;;;5053750;28;19983;-67
2023/03/24 00:57:01;;;;;;;;;;;;;;;;;;5053469;28;20003;-65
2023/03/24 00:59:28;;;;;;;;;;;;;;;;;;5053702;28;20339;-66
2023/03/24 01:01:55;;;;;;;;;;;;;;;;;;5054731;28;19977;-68
2023/03/24 01:04:23;;;;;;;;;;;;;;;;;;5057430;28;19948;-67
2023/03/24 01:06:51;;;;;;;;;;;;;;;;;;5057608;28;19959;-67
2023/03/24 01:09:17;;;;;;;;;;;;;;;;;;5057299;28;19995;-66
2023/03/24 01:11:42;;;;;;;;;;;;;;;;;;5057299;28;20428;-68
2023/03/24 01:14:09;;;;;;;;;;;;;;;;;;5057235;28;19992;-67
2023/03/24 01:16:35;;;;;;;;;;;;;;;;;;5057189;28;20034;-67
2023/03/24 01:19:01;;;;;;;;;;;;;;;;;;5057190;28;20074;-67
2023/03/24 01:21:27;;;;;;;;;;;;;;;;;;5057044;28;20392;-64
2023/03/24 01:23:54;;;;;;;;;;;;;;;;;;5057052;28;19939;-69
2023/03/24 01:26:20;;;;;;;;;;;;;;;;;;5057671;28;19949;-66
2023/03/24 01:28:45;;;;;;;;;;;;;;;;;;5057195;28;19956;-66
2023/03/24 01:31:11;;;;;;;;;;;;;;;;;;5056937;28;19971;-69
2023/03/24 01:33:37;;;;;;;;;;;;;;;;;;5056964;28;19943;-68
2023/03/24 01:36:03;;;;;;;;;;;;;;;;;;5056859;28;19937;-68
2023/03/24 01:38:29;;;;;;;;;;;;;;;;;;5057368;28;20319;-67
2023/03/24 01:40:55;;;;;;;;;;;;;;;;;;5056629;28;19985;-69
2023/03/24 01:43:21;;;;;;;;;;;;;;;;;;5056697;28;20458;-67
2023/03/24 01:45:47;;;;;;;;;;;;;;;;;;5056689;28;20003;-68
2023/03/24 01:48:13;;;;;;;;;;;;;;;;;;5056894;28;19996;-65
2023/03/24 01:50:39;;;;;;;;;;;;;;;;;;5056580;28;19948;-69
2023/03/24 01:53:05;;;;;;;;;;;;;;;;;;5057129;28;19949;-66
2023/03/24 01:55:31;;;;;;;;;;;;;;;;;;5056475;28;19949;-68
2023/03/24 01:57:57;;;;;;;;;;;;;;;;;;5056959;28;20396;-66
2023/03/24 02:00:23;;;;;;;;;;;;;;;;;;5056612;28;20036;-67
2023/03/24 02:02:53;;;;;;;;;;;;;;;;;;5056600;28;19953;-65
2023/03/24 02:05:19;;;;;;;;;;;;;;;;;;5055026;28;19976;-66
2023/03/24 02:07:45;;;;;;;;;;;;;;;;;;5056545;28;20303;-64
2023/03/24 02:10:12;;;;;;;;;;;;;;;;;;5057020;28;19949;-70
2023/03/24 02:12:38;;;;;;;;;;;;;;;;;;5055974;28;19950;-68
2023/03/24 02:15:04;;;;;;;;;;;;;;;;;;5056132;28;19945;-69
2023/03/24 02:17:32;;;;;;;;;;;;;;;;;;5056098;28;20415;-65
2023/03/24 02:19:58;;;;;;;;;;;;;;;;;;5055958;28;20031;-65
2023/03/24 02:22:24;;;;;;;;;;;;;;;;;;5055985;28;20416;-65
2023/03/24 02:24:50;;;;;;;;;;;;;;;;;;5055946;28;20407;-66
2023/03/24 02:27:16;;;;;;;;;;;;;;;;;;5055898;28;19949;-64
2023/03/24 02:29:42;;;;;;;;;;;;;;;;;;5056071;28;19974;-66
2023/03/24 02:32:09;;;;;;;;;;;;;;;;;;5055802;28;20353;-69
2023/03/24 02:34:36;;;;;;;;;;;;;;;;;;5056047;28;19983;-67
2023/03/24 02:37:02;;;;;;;;;;;;;;;;;;5055828;28;20486;-64
2023/03/24 02:39:27;;;;;;;;;;;;;;;;;;5055698;28;19955;-69
2023/03/24 02:41:54;;;;;;;;;;;;;;;;;;5056155;28;20303;-69
2023/03/24 02:44:20;;;;;;;;;;;;;;;;;;5055575;28;19947;-66
2023/03/24 02:46:46;;;;;;;;;;;;;;;;;;5055571;28;19950;-68
2023/03/24 02:49:12;;;;;;;;;;;;;;;;;;5055484;28;20040;-70
2023/03/24 02:51:39;;;;;;;;;;;;;;;;;;5056012;28;20385;-67
2023/03/24 02:54:05;;;;;;;;;;;;;;;;;;5055394;28;19995;-69
2023/03/24 02:56:31;;;;;;;;;;;;;;;;;;5055325;28;19945;-69
2023/03/24 02:58:57;;;;;;;;;;;;;;;;;;5055321;28;20529;-65
2023/03/24 03:01:30;;;;;;;;;;;;;;;;;;5055758;28;20016;-68
2023/03/24 03:03:56;;;;;;;;;;;;;;;;;;5053750;28;20350;-66
2023/03/24 03:06:22;;;;;;;;;;;;;;;;;;5055483;28;19951;-69
2023/03/24 03:08:47;;;;;;;;;;;;;;;;;;5055395;28;19951;-65
2023/03/24 03:11:13;;;;;;;;;;;;;;;;;;5055001;28;20013;-67
2023/03/24 03:13:39;;;;;;;;;;;;;;;;;;5055013;28;19944;-70
2023/03/24 03:16:05;;;;;;;;;;;;;;;;;;5054958;28;19964;-68
2023/03/24 03:18:31;;;;;;;;;;;;;;;;;;5055453;28;19948;-65
2023/03/24 03:20:57;;;;;;;;;;;;;;;;;;5054785;28;19981;-67
2023/03/24 03:23:23;;;;;;;;;;;;;;;;;;5055089;28;20365;-65
2023/03/24 03:25:49;;;;;;;;;;;;;;;;;;5053866;28;20069;-68
2023/03/24 03:28:16;;;;;;;;;;;;;;;;;;5055011;28;19999;-67
2023/03/24 03:30:42;;;;;;;;;;;;;;;;;;5054594;28;19962;-67
2023/03/24 03:33:08;;;;;;;;;;;;;;;;;;5054893;28;19958;-67
2023/03/24 03:35:35;;;;;;;;;;;;;;;;;;5054507;28;20307;-66
2023/03/24 03:38:01;;;;;;;;;;;;;;;;;;5054825;28;19951;-69
2023/03/24 03:40:27;;;;;;;;;;;;;;;;;;5054327;28;19993;-70
2023/03/24 03:42:53;;;;;;;;;;;;;;;;;;5054449;28;19950;-68
2023/03/24 03:45:19;;;;;;;;;;;;;;;;;;5054632;28;19957;-68
2023/03/24 03:47:45;;;;;;;;;;;;;;;;;;5054931;28;19945;-67
2023/03/24 03:50:11;;;;;;;;;;;;;;;;;;5054357;28;19994;-66
2023/03/24 03:52:37;;;;;;;;;;;;;;;;;;5054300;28;20000;-69
2023/03/24 03:55:03;;;;;;;;;;;;;;;;;;5054237;28;19952;-67
2023/03/24 03:57:29;;;;;;;;;;;;;;;;;;5054746;28;20050;-65
2023/03/24 03:59:55;;;;;;;;;;;;;;;;;;5054357;28;19951;-65
2023/03/24 04:02:23;;;;;;;;;;;;;;;;;;5054102;28;19987;-65
2023/03/24 04:04:51;;;;;;;;;;;;;;;;;;5054096;28;19942;-65
2023/03/24 04:07:17;;;;;;;;;;;;;;;;;;5053772;28;20045;-68
2023/03/24 04:09:43;;;;;;;;;;;;;;;;;;5052758;28;20303;-69
2023/03/24 04:12:09;;;;;;;;;;;;;;;;;;5054277;28;19958;-67
2023/03/24 04:14:36;;;;;;;;;;;;;;;;;;5054744;28;20079;-68
2023/03/24 04:17:02;;;;;;;;;;;;;;;;;;5053903;28;19985;-68
2023/03/24 04:19:28;;;;;;;;;;;;;;;;;;5053865;28;20001;-66
2023/03/24 04:21:54;;;;;;;;;;;;;;;;;;5053741;28;20493;-65
2023/03/24 04:24:25;;;;;;;;;;;;;;;;;;5053810;28;19951;-66
2023/03/24 04:26:53;;;;;;;;;;;;;;;;;;5053793;28;20322;-67
2023/03/24 04:29:19;;;;;;;;;;;;;;;;;;5053915;28;20321;-68
2023/03/24 04:31:48;;;;;;;;;;;;;;;;;;5054263;28;20448;-68
2023/03/24 04:34:14;;;;;;;;;;;;;;;;;;5053641;28;19952;-66
2023/03/24 04:36:43;;;;;;;;;;;;;;;;;;5053735;28;20065;-65
2023/03/24 04:39:09;;;;;;;;;;;;;;;;;;5053863;28;19951;-68
2023/03/24 04:41:36;;;;;;;;;;;;;;;;;;5052998;28;20485;-67
2023/03/24 04:44:02;;;;;;;;;;;;;;;;;;5053587;28;19950;-66
2023/03/24 04:46:28;;;;;;;;;;;;;;;;;;5054085;28;20320;-67
2023/03/24 04:48:54;;;;;;;;;;;;;;;;;;5053810;28;19947;-68
2023/03/24 04:51:20;;;;;;;;;;;;;;;;;;5054043;28;20015;-67
2023/03/24 04:53:46;;;;;;;;;;;;;;;;;;5053747;28;20036;-68
2023/03/24 04:56:11;;;;;;;;;;;;;;;;;;5053440;28;19955;-67
2023/03/24 04:58:37;;;;;;;;;;;;;;;;;;5053691;28;20041;-67
2023/03/24 05:01:04;;;;;;;;;;;;;;;;;;5053602;28;19971;-69
2023/03/24 05:03:30;;;;;;;;;;;;;;;;;;5053954;28;20452;-70
2023/03/24 05:05:58;;;;;;;;;;;;;;;;;;5053353;28;19944;-66
2023/03/24 05:08:24;;;;;;;;;;;;;;;;;;5053629;28;19987;-67
2023/03/24 05:10:50;;;;;;;;;;;;;;;;;;5052041;28;19952;-67
2023/03/24 05:13:16;;;;;;;;;;;;;;;;;;5053851;28;20044;-68
2023/03/24 05:15:42;;;;;;;;;;;;;;;;;;5053270;28;20038;-69
2023/03/24 05:18:08;;;;;;;;;;;;;;;;;;5053546;28;19987;-67
2023/03/24 05:20:34;;;;;;;;;;;;;;;;;;5053156;28;19987;-67
2023/03/24 05:23:00;;;;;;;;;;;;;;;;;;5053468;28;20042;-68
2023/03/24 05:25:26;;;;;;;;;;;;;;;;;;5053155;28;20332;-67
2023/03/24 05:27:52;;;;;;;;;;;;;;;;;;5053382;28;19960;-69
2023/03/24 05:30:19;;;;;;;;;;;;;;;;;;5052983;28;20391;-66
2023/03/24 05:32:45;;;;;;;;;;;;;;;;;;5053383;28;19997;-65
2023/03/24 05:35:11;;;;;;;;;;;;;;;;;;5053105;28;19952;-67
2023/03/24 05:37:37;;;;;;;;;;;;;;;;;;5053615;28;19955;-69
2023/03/24 05:40:02;;;;;;;;;;;;;;;;;;5052822;28;20034;-69
2023/03/24 05:42:28;;;;;;;;;;;;;;;;;;5053579;28;20441;-66
2023/03/24 05:44:54;;;;;;;;;;;;;;;;;;5053008;28;19953;-69
2023/03/24 05:47:20;;;;;;;;;;;;;;;;;;5053196;28;19953;-65
2023/03/24 05:49:46;;;;;;;;;;;;;;;;;;5056891;28;19952;-68
2023/03/24 05:52:14;;;;;;;;;;;;;;;;;;5056565;28;19952;-67
2023/03/24 05:54:40;;;;;;;;;;;;;;;;;;5057432;28;20038;-69
2023/03/24 05:57:09;;;;;;;;;;;;;;;;;;5056458;28;20418;-66
2023/03/24 05:59:36;;;;;;;;;;;;;;;;;;5057052;28;19960;-67
2023/03/24 06:02:02;;;;;;;;;;;;;;;;;;5056608;28;19970;-66
2023/03/24 06:04:29;;;;;;;;;;;;;;;;;;5056678;28;20364;-64
2023/03/24 06:06:57;;;;;;;;;;;;;;;;;;5056301;28;19953;-65
2023/03/24 06:09:23;;;;;;;;;;;;;;;;;;5055071;28;20336;-64
2023/03/24 06:11:49;;;;;;;;;;;;;;;;;;5056921;28;19955;-67
2023/03/24 06:14:15;;;;;;;;;;;;;;;;;;5056170;28;19952;-65
2023/03/24 06:16:41;;;;;;;;;;;;;;;;;;5056981;28;20055;-68
2023/03/24 06:19:07;;;;;;;;;;;;;;;;;;5056097;28;19979;-67
2023/03/24 06:21:33;;;;;;;;;;;;;;;;;;5056191;28;19979;-68
2023/03/24 06:23:59;;;;;;;;;;;;;;;;;;5055992;28;19956;-66
2023/03/24 06:26:25;;;;;;;;;;;;;;;;;;5056510;28;20047;-66
2023/03/24 06:28:51;;;;;;;;;;;;;;;;;;5055821;28;20457;-65
2023/03/24 06:31:18;;;;;;;;;;;;;;;;;;5056111;28;19953;-66
2023/03/24 06:33:45;;;;;;;;;;;;;;;;;;5056053;28;20302;-65
2023/03/24 06:36:11;;;;;;;;;;;;;;;;;;5056323;28;20046;-69
2023/03/24 06:38:37;;;;;;;;;;;;;;;;;;5055724;28;20472;-67
2023/03/24 06:41:03;;;;;;;;;;;;;;;;;;5056148;28;20027;-68
2023/03/24 06:43:29;;;;;;;;;;;;;;;;;;5055861;28;19952;-70
2023/03/24 06:45:55;;;;;;;;;;;;;;;;;;5055510;28;19951;-67
2023/03/24 06:48:20;;;;;;;;;;;;;;;;;;5055519;28;19956;-67
2023/03/24 06:50:46;;;;;;;;;;;;;;;;;;5056072;28;20332;-67
2023/03/24 06:53:12;;;;;;;;;;;;;;;;;;5055725;28;19986;-67
2023/03/24 06:55:38;;;;;;;;;;;;;;;;;;5055399;28;20399;-66
2023/03/24 06:58:04;;;;;;;;;;;;;;;;;;5055655;28;19995;-68
2023/03/24 07:00:30;;;;;;;;;;;;;;;;;;5055208;28;20352;-66
2023/03/24 07:02:56;;;;;;;;;;;;;;;;;;5055247;28;19959;-66
2023/03/24 07:05:22;;;;;;;;;;;;;;;;;;5055420;28;19950;-66
2023/03/24 07:07:48;;;;;;;;;;;;;;;;;;5055169;28;20407;-66
2023/03/24 07:10:14;;;;;;;;;;;;;;;;;;5055397;28;19959;-65
2023/03/24 07:12:40;;;;;;;;;;;;;;;;;;5055056;28;19954;-68
2023/03/24 07:15:07;;;;;;;;;;;;;;;;;;5055035;28;20385;-68
2023/03/24 07:17:33;;;;;;;;;;;;;;;;;;5054851;28;20332;-67
2023/03/24 07:19:59;;;;;;;;;;;;;;;;;;5055087;28;19961;-67
2023/03/24 07:22:24;;;;;;;;;;;;;;;;;;5054871;28;19947;-68
2023/03/24 07:24:51;;;;;;;;;;;;;;;;;;5055090;28;19989;-70
2023/03/24 07:27:17;;;;;;;;;;;;;;;;;;5055031;28;19953;-67
2023/03/24 07:29:42;;;;;;;;;;;;;;;;;;5054666;28;20344;-66
2023/03/24 07:32:08;;;;;;;;;;;;;;;;;;5054686;28;20041;-68
2023/03/24 07:34:38;;;;;;;;;;;;;;;;;;5054551;28;19956;-69
2023/03/24 07:37:04;;;;;;;;;;;;;;;;;;5054293;28;19954;-66
2023/03/24 07:39:30;;;;;;;;;;;;;;;;;;5054388;28;19950;-68
2023/03/24 07:41:56;;;;;;;;;;;;;;;;;;5054452;28;19978;-68
2023/03/24 07:44:22;;;;;;;;;;;;;;;;;;5054998;28;20307;-68
2023/03/24 07:46:48;;;;;;;;;;;;;;;;;;5054380;28;20037;-68
2023/03/24 07:49:14;;;;;;;;;;;;;;;;;;5054399;28;20425;-69
2023/03/24 07:51:40;;;;;;;;;;;;;;;;;;5054635;28;19959;-66
2023/03/24 07:54:06;;;;;;;;;;;;;;;;;;5054593;28;20334;-69
2023/03/24 07:56:31;;;;;;;;;;;;;;;;;;5054842;28;19961;-68
2023/03/24 07:58:57;;;;;;;;;;;;;;;;;;5054208;28;19977;-66
2023/03/24 08:01:23;;;;;;;;;;;;;;;;;;5054074;28;20060;-64
2023/03/24 08:03:53;;;;;;;;;;;;;;;;;;5054353;28;20398;-66
2023/03/24 08:06:19;;;;;;;;;;;;;;;;;;5054630;28;19951;-66
2023/03/24 08:08:44;;;;;;;;;;;;;;;;;;5054293;28;19999;-63
2023/03/24 08:11:10;;;;;;;;;;;;;;;;;;5054148;28;19952;-65
2023/03/24 08:13:36;;;;;;;;;;;;;;;;;;5054231;28;19993;-69
2023/03/24 08:16:03;;;;;;;;;;;;;;;;;;5053950;28;19957;-69
2023/03/24 08:18:31;;;;;;;;;;;;;;;;;;5053886;28;19960;-65
2023/03/24 08:20:57;;;;;;;;;;;;;;;;;;5054036;28;19981;-65
2023/03/24 08:23:23;;;;;;;;;;;;;;;;;;5053860;28;19960;-63
2023/03/24 08:25:49;;;;;;;;;;;;;;;;;;5054354;28;20005;-66
2023/03/24 08:28:15;;;;;;;;;;;;;;;;;;5053982;28;19963;-64
2023/03/24 08:30:42;;;;;;;;;;;;;;;;;;5053525;28;20060;-63
2023/03/24 08:33:08;;;;;;;;;;;;;;;;;;5053705;28;19947;-65
2023/03/24 08:35:37;;;;;;;;;;;;;;;;;;5053651;28;19955;-68
2023/03/24 08:38:03;;;;;;;;;;;;;;;;;;5053838;28;20008;-68
2023/03/24 08:40:30;;;;;;;;;;;;;;;;;;5053378;28;20456;-63
2023/03/24 08:42:56;;;;;;;;;;;;;;;;;;5053794;28;19957;-64
2023/03/24 08:45:22;;;;;;;;;;;;;;;;;;5053777;28;19957;-65
2023/03/24 08:47:49;;;;;;;;;;;;;;;;;;5053102;28;20398;-64
2023/03/24 08:50:15;;;;;;;;;;;;;;;;;;5053768;28;19959;-63
2023/03/24 08:52:40;;;;;;;;;;;;;;;;;;5053729;28;19956;-64
2023/03/24 08:55:08;;;;;;;;;;;;;;;;;;5054031;28;20397;-66
2023/03/24 08:57:34;;;;;;;;;;;;;;;;;;5053156;28;19953;-64
2023/03/24 09:00:00;;;;;;;;;;;;;;;;;;5053405;28;19999;-68
2023/03/24 09:02:26;;;;;;;;;;;;;;;;;;5053409;28;19959;-63
2023/03/24 09:04:53;;;;;;;;;;;;;;;;;;5053679;28;20015;-66
2023/03/24 09:07:19;;;;;;;;;;;;;;;;;;5053410;28;20363;-66
2023/03/24 09:09:45;;;;;;;;;;;;;;;;;;5053615;28;20343;-63
2023/03/24 09:12:11;;;;;;;;;;;;;;;;;;5053872;28;19953;-67
2023/03/24 09:14:37;;;;;;;;;;;;;;;;;;5053563;28;19954;-65
2023/03/24 09:17:03;;;;;;;;;;;;;;;;;;5053792;28;20421;-69
2023/03/24 09:19:30;;;;;;;;;;;;;;;;;;5053829;28;19957;-64
2023/03/24 09:21:56;;;;;;;;;;;;;;;;;;5053156;28;19972;-66
2023/03/24 09:24:22;;;;;;;;;;;;;;;;;;5056978;28;19951;-65
2023/03/24 09:26:48;;;;;;;;;;;;;;;;;;5057039;28;19950;-67
2023/03/24 09:29:14;;;;;;;;;;;;;;;;;;5056923;28;20067;-65
2023/03/24 09:31:40;;;;;;;;;;;;;;;;;;5057230;28;20329;-67
2023/03/24 09:34:06;;;;;;;;;;;;;;;;;;5056948;28;20340;-66
2023/03/24 09:36:32;;;;;;;;;;;;;;;;;;5056900;28;19951;-66
2023/03/24 09:38:58;;;;;;;;;;;;;;;;;;5057116;28;19960;-66
2023/03/24 09:41:24;;;;;;;;;;;;;;;;;;5056406;28;19986;-65
2023/03/24 09:43:49;;;;;;;;;;;;;;;;;;5057043;28;19953;-64
2023/03/24 09:46:15;;;;;;;;;;;;;;;;;;5056720;28;20446;-66
2023/03/24 09:48:41;;;;;;;;;;;;;;;;;;5056648;28;19952;-64
2023/03/24 09:51:07;;;;;;;;;;;;;;;;;;5056885;28;19956;-65
2023/03/24 09:53:33;;;;;;;;;;;;;;;;;;5056820;28;19959;-65
2023/03/24 09:55:59;;;;;;;;;;;;;;;;;;5057067;28;20005;-63
2023/03/24 09:58:25;;;;;;;;;;;;;;;;;;5056716;28;19948;-65
2023/03/24 10:00:51;;;;;;;;;;;;;;;;;;5056625;28;19975;-67
2023/03/24 10:03:19;;;;;;;;;;;;;;;;;;5056388;28;19960;-70
2023/03/24 10:05:45;;;;;;;;;;;;;;;;;;5056655;28;19952;-71
2023/03/24 10:08:11;;;;;;;;;;;;;;;;;;5056314;28;19959;-69
2023/03/24 10:10:37;;;;;;;;;;;;;;;;;;5056461;28;19970;-67
2023/03/24 10:13:03;;;;;;;;;;;;;;;;;;5056238;28;20040;-68
2023/03/24 10:15:29;;;;;;;;;;;;;;;;;;5056730;28;19952;-68
2023/03/24 10:17:55;;;;;;;;;;;;;;;;;;5056396;28;19961;-68
2023/03/24 10:20:21;;;;;;;;;;;;;;;;;;5056576;28;19969;-66
2023/03/24 10:22:47;;;;;;;;;;;;;;;;;;5056049;28;20439;-69
2023/03/24 10:25:13;;;;;;;;;;;;;;;;;;5055989;28;19950;-67
2023/03/24 10:27:39;;;;;;;;;;;;;;;;;;5056244;28;19959;-68
2023/03/24 10:30:05;;;;;;;;;;;;;;;;;;5055820;28;20382;-71
2023/03/24 10:32:31;;;;;;;;;;;;;;;;;;5055854;28;19954;-68
2023/03/24 10:34:59;;;;;;;;;;;;;;;;;;5055489;28;19991;-67
2023/03/24 10:37:24;;;;;;;;;;;;;;;;;;5055788;28;19952;-70
2023/03/24 10:39:50;;;;;;;;;;;;;;;;;;5055801;28;20036;-71
2023/03/24 10:42:17;;;;;;;;;;;;;;;;;;5055867;28;19996;-66
2023/03/24 10:44:43;;;;;;;;;;;;;;;;;;5055584;28;19952;-68
2023/03/24 10:47:09;;;;;;;;;;;;;;;;;;5055849;28;19959;-67
2023/03/24 10:49:34;;;;;;;;;;;;;;;;;;5055525;28;19955;-68
2023/03/24 10:52:02;;;;;;;;;;;;;;;;;;5055449;28;19952;-68
2023/03/24 10:54:28;;;;;;;;;;;;;;;;;;5055416;28;20403;-68
2023/03/24 10:56:55;;;;;;;;;;;;;;;;;;5055952;28;19947;-70
2023/03/24 10:59:20;;;;;;;;;;;;;;;;;;5055655;28;20002;-68
2023/03/24 11:01:46;;;;;;;;;;;;;;;;;;5055797;28;19966;-70
2023/03/24 11:04:12;;;;;;;;;;;;;;;;;;5055251;28;19961;-68
2023/03/24 11:06:38;;;;;;;;;;;;;;;;;;5055438;28;19973;-69
2023/03/24 11:09:04;;;;;;;;;;;;;;;;;;5055411;28;19953;-69
2023/03/24 11:11:30;;;;;;;;;;;;;;;;;;5055096;28;19948;-69
2023/03/24 11:13:56;;;;;;;;;;;;;;;;;;5055365;28;20045;-70
2023/03/24 11:16:22;;;;;;;;;;;;;;;;;;5055024;28;20431;-67
2023/03/24 11:18:48;;;;;;;;;;;;;;;;;;5055202;28;19960;-68
2023/03/24 11:21:14;;;;;;;;;;;;;;;;;;5055120;28;19973;-67
2023/03/24 11:23:41;;;;;;;;;;;;;;;;;;5055924;28;20415;-69
2023/03/24 11:26:07;;;;;;;;;;;;;;;;;;5055053;28;20398;-67
2023/03/24 11:28:33;;;;;;;;;;;;;;;;;;5054755;28;19993;-69
2023/03/24 11:30:59;;;;;;;;;;;;;;;;;;5054751;28;20047;-69
2023/03/24 11:33:25;;;;;;;;;;;;;;;;;;5054997;28;20001;-70
2023/03/24 11:35:51;;;;;;;;;;;;;;;;;;5054613;28;20445;-66
2023/03/24 11:38:17;;;;;;;;;;;;;;;;;;5054579;28;19953;-70
2023/03/24 11:40:42;;;;;;;;;;;;;;;;;;5054271;28;19995;-67
2023/03/24 11:43:09;;;;;;;;;;;;;;;;;;5055035;28;19990;-70
2023/03/24 11:45:35;;;;;;;;;;;;;;;;;;5053684;28;20326;-70
2023/03/24 11:48:01;;;;;;;;;;;;;;;;;;5054668;28;19965;-68
2023/03/24 11:50:27;;;;;;;;;;;;;;;;;;5054635;28;19952;-68
2023/03/24 11:52:53;;;;;;;;;;;;;;;;;;5054640;28;19967;-68
2023/03/24 11:55:20;;;;;;;;;;;;;;;;;;5055091;28;19956;-69
2023/03/24 11:57:46;;;;;;;;;;;;;;;;;;5052780;28;19955;-68
2023/03/24 12:00:12;;;;;;;;;;;;;;;;;;5054142;28;19953;-68
2023/03/24 12:02:38;;;;;;;;;;;;;;;;;;5054716;28;20400;-70
2023/03/24 12:05:04;;;;;;;;;;;;;;;;;;5054417;28;20047;-70
2023/03/24 12:07:30;;;;;;;;;;;;;;;;;;5054116;28;20371;-69
2023/03/24 12:09:56;;;;;;;;;;;;;;;;;;5054036;28;19951;-71
2023/03/24 12:12:22;;;;;;;;;;;;;;;;;;5054247;28;19952;-66
2023/03/24 12:14:48;;;;;;;;;;;;;;;;;;5053949;28;19956;-69
2023/03/24 12:17:14;;;;;;;;;;;;;;;;;;5053929;28;19967;-67
2023/03/24 12:19:40;;;;;;;;;;;;;;;;;;5054171;28;19965;-68
2023/03/24 12:22:06;;;;;;;;;;;;;;;;;;5053719;28;20060;-71
2023/03/24 12:24:31;;;;;;;;;;;;;;;;;;5053648;28;19994;-66
2023/03/24 12:26:57;;;;;;;;;;;;;;;;;;5053942;28;19952;-71
2023/03/24 12:29:25;;;;;;;;;;;;;;;;;;5053940;28;20022;-66
2023/03/24 12:31:51;;;;;;;;;;;;;;;;;;5054310;28;20320;-67
2023/03/24 12:34:17;;;;;;;;;;;;;;;;;;5053678;28;20038;-69
2023/03/24 12:36:43;;;;;;;;;;;;;;;;;;5053649;28;19957;-68
2023/03/24 12:39:09;;;;;;;;;;;;;;;;;;5053901;28;19949;-67
2023/03/24 12:41:35;;;;;;;;;;;;;;;;;;5053128;28;20011;-67
2023/03/24 12:44:00;;;;;;;;;;;;;;;;;;5054139;28;20403;-71
2023/03/24 12:46:26;;;;;;;;;;;;;;;;;;5053586;28;19946;-69
2023/03/24 12:48:52;;;;;;;;;;;;;;;;;;5053802;28;19955;-68
2023/03/24 12:51:18;;;;;;;;;;;;;;;;;;5053740;28;20056;-67
2023/03/24 12:53:44;;;;;;;;;;;;;;;;;;5053514;28;19948;-68
2023/03/24 12:56:10;;;;;;;;;;;;;;;;;;5053760;28;19948;-68
2023/03/24 12:58:36;;;;;;;;;;;;;;;;;;5057812;28;20467;-67
2023/03/24 13:01:02;;;;;;;;;;;;;;;;;;5057508;28;20383;-70
2023/03/24 13:03:28;;;;;;;;;;;;;;;;;;5057537;28;19986;-67
2023/03/24 13:05:54;;;;;;;;;;;;;;;;;;5056207;28;19957;-70
2023/03/24 13:08:21;;;;;;;;;;;;;;;;;;5058008;28;20051;-67
2023/03/24 13:10:47;;;;;;;;;;;;;;;;;;5057328;28;20483;-68
2023/03/24 13:13:13;;;;;;;;;;;;;;;;;;5057903;28;19945;-71
2023/03/24 13:15:39;;;;;;;;;;;;;;;;;;5057615;28;19952;-68
2023/03/24 13:18:05;;;;;;;;;;;;;;;;;;5058119;28;20386;-69
2023/03/24 13:20:31;;;;;;;;;;;;;;;;;;5057159;28;19970;-70
2023/03/24 13:22:57;;;;;;;;;;;;;;;;;;5057462;28;19960;-69
2023/03/24 13:25:23;;;;;;;;;;;;;;;;;;5057469;28;19996;-70
2023/03/24 13:27:49;;;;;;;;;;;;;;;;;;5057696;28;19986;-67
2023/03/24 13:30:15;;;;;;;;;;;;;;;;;;5057055;28;20442;-70
2023/03/24 13:32:41;;;;;;;;;;;;;;;;;;5057579;28;19949;-69
2023/03/24 13:35:08;;;;;;;;;;;;;;;;;;5057237;28;19949;-69
2023/03/24 13:37:34;;;;;;;;;;;;;;;;;;5057243;28;19961;-68
2023/03/24 13:40:00;;;;;;;;;;;;;;;;;;5056668;28;19988;-69
2023/03/24 13:42:26;;;;;;;;;;;;;;;;;;5057357;28;19996;-69
2023/03/24 13:44:52;;;;;;;;;;;;;;;;;;5056977;28;19994;-69
2023/03/24 13:47:18;;;;;;;;;;;;;;;;;;5057272;28;19986;-68
2023/03/24 13:49:44;;;;;;;;;;;;;;;;;;5056961;28;19950;-67
2023/03/24 13:52:10;;;;;;;;;;;;;;;;;;5056660;28;20475;-71
2023/03/24 13:54:36;;;;;;;;;;;;;;;;;;5056613;28;19952;-69
2023/03/24 13:57:02;;;;;;;;;;;;;;;;;;5056559;28;19958;-72
2023/03/24 13:59:28;;;;;;;;;;;;;;;;;;5057055;28;19955;-72
2023/03/24 14:01:54;;;;;;;;;;;;;;;;;;5056391;28;20013;-70
2023/03/24 14:04:20;;;;;;;;;;;;;;;;;;5056675;28;19948;-70
2023/03/24 14:06:46;;;;;;;;;;;;;;;;;;5056346;28;19952;-70
2023/03/24 14:09:12;;;;;;;;;;;;;;;;;;5055582;28;19999;-67
2023/03/24 14:11:40;;;;;;;;;;;;;;;;;;5056530;28;20406;-69
2023/03/24 14:14:06;;;;;;;;;;;;;;;;;;5056491;28;19951;-69
2023/03/24 14:16:32;;;;;;;;;;;;;;;;;;5056186;28;20321;-67
2023/03/24 14:18:58;;;;;;;;;;;;;;;;;;5056685;28;20242;-65
2023/03/24 14:21:23;;;;;;;;;;;;;;;;;;5056264;28;19963;-67
2023/03/24 14:23:51;;;;;;;;;;;;;;;;;;5056048;28;20370;-67
2023/03/24 14:26:17;;;;;;;;;;;;;;;;;;5054825;28;19912;-65
2023/03/24 14:28:43;;;;;;;;;;;;;;;;;;5056146;28;19947;-68
2023/03/24 14:31:11;;;;;;;;;;;;;;;;;;5056503;28;19936;-66
2023/03/24 14:33:37;;;;;;;;;;;;;;;;;;5055822;28;20380;-69
2023/03/24 14:36:05;;;;;;;;;;;;;;;;;;5055808;28;19983;-69
2023/03/24 14:38:30;;;;;;;;;;;;;;;;;;5056034;28;20427;-66
2023/03/24 14:40:56;;;;;;;;;;;;;;;;;;5055461;28;19991;-70
2023/03/24 14:43:22;;;;;;;;;;;;;;;;;;5055951;28;19961;-67
2023/03/24 14:45:48;;;;;;;;;;;;;;;;;;5055901;28;19960;-69
2023/03/24 14:48:14;;;;;;;;;;;;;;;;;;5056181;28;19952;-66
2023/03/24 14:50:40;;;;;;;;;;;;;;;;;;5055514;28;19957;-67
2023/03/24 14:53:06;;;;;;;;;;;;;;;;;;5055465;28;20330;-69
2023/03/24 14:55:32;;;;;;;;;;;;;;;;;;5055429;28;20430;-71
2023/03/24 14:57:58;;;;;;;;;;;;;;;;;;5055412;28;19961;-69
2023/03/24 15:00:24;;;;;;;;;;;;;;;;;;5055258;28;19954;-67
2023/03/24 15:02:50;;;;;;;;;;;;;;;;;;5055322;28;19977;-69
2023/03/24 15:05:18;;;;;;;;;;;;;;;;;;5055757;28;20498;-67
2023/03/24 15:07:44;;;;;;;;;;;;;;;;;;5055182;28;20319;-72
2023/03/24 15:10:10;;;;;;;;;;;;;;;;;;5055120;28;19957;-70
2023/03/24 15:12:36;;;;;;;;;;;;;;;;;;5055102;28;19952;-68
2023/03/24 15:15:02;;;;;;;;;;;;;;;;;;5055320;28;19969;-69
2023/03/24 15:17:28;;;;;;;;;;;;;;;;;;5055290;28;19987;-69
2023/03/24 15:19:54;;;;;;;;;;;;;;;;;;5054890;28;20002;-69
2023/03/24 15:22:20;;;;;;;;;;;;;;;;;;5054564;28;19968;-69
2023/03/24 15:24:46;;;;;;;;;;;;;;;;;;5055509;28;19955;-68
2023/03/24 15:27:11;;;;;;;;;;;;;;;;;;5055141;28;20398;-65
2023/03/24 15:29:37;;;;;;;;;;;;;;;;;;5054744;28;19973;-67
2023/03/24 15:32:03;;;;;;;;;;;;;;;;;;5055035;28;19951;-68
2023/03/24 15:34:29;;;;;;;;;;;;;;;;;;5054987;28;19967;-69
2023/03/24 15:36:56;;;;;;;;;;;;;;;;;;5054686;28;19955;-69
2023/03/24 15:39:22;;;;;;;;;;;;;;;;;;5054455;28;20428;-67
2023/03/24 15:41:47;;;;;;;;;;;;;;;;;;5054445;28;19976;-70
2023/03/24 15:44:13;;;;;;;;;;;;;;;;;;5054503;28;19985;-72
2023/03/24 15:46:39;;;;;;;;;;;;;;;;;;5054751;28;19998;-68
2023/03/24 15:49:05;;;;;;;;;;;;;;;;;;5054705;28;20406;-70
2023/03/24 15:51:31;;;;;;;;;;;;;;;;;;5054696;28;19951;-69
2023/03/24 15:53:58;;;;;;;;;;;;;;;;;;5054923;28;19979;-69
2023/03/24 15:56:23;;;;;;;;;;;;;;;;;;5054262;28;19956;-71
2023/03/24 15:58:50;;;;;;;;;;;;;;;;;;5054843;28;19998;-69
2023/03/24 16:01:16;;;;;;;;;;;;;;;;;;5054379;28;20379;-71
2023/03/24 16:03:42;;;;;;;;;;;;;;;;;;5054231;28;19950;-71
2023/03/24 16:06:07;;;;;;;;;;;;;;;;;;5054467;28;19963;-68
2023/03/24 16:08:39;;;;;;;;;;;;;;;;;;5054069;28;20394;-73
2023/03/24 16:11:09;;;;;;;;;;;;;;;;;;5054090;28;20048;-68
2023/03/24 16:13:35;;;;;;;;;;;;;;;;;;5054552;28;20294;-69
2023/03/24 16:16:02;;;;;;;;;;;;;;;;;;5053970;28;19952;-70
2023/03/24 16:18:28;;;;;;;;;;;;;;;;;;5054205;28;19957;-71
2023/03/24 16:20:54;;;;;;;;;;;;;;;;;;5053871;28;19966;-72
2023/03/24 16:23:20;;;;;;;;;;;;;;;;;;5053860;28;19972;-70
2023/03/24 16:25:46;;;;;;;;;;;;;;;;;;5053829;28;20037;-68
2023/03/24 16:28:12;;;;;;;;;;;;;;;;;;5053780;28;19989;-68
2023/03/24 16:30:39;;;;;;;;;;;;;;;;;;5053727;28;19968;-67
2023/03/24 16:33:05;;;;;;;;;;;;;;;;;;5053417;28;19959;-66
2023/03/24 16:35:31;;;;;;;;;;;;;;;;;;5053954;28;19960;-65
2023/03/24 16:37:57;;;;;;;;;;;;;;;;;;5053695;28;19952;-70